createdAt,value
2022-09-25T00:01:26.579Z,11.72
2022-09-25T00:03:30.992Z,11.72
2022-09-25T00:05:36.921Z,11.68
2022-09-25T00:07:39.482Z,11.56
2022-09-25T00:09:42.173Z,11.60
2022-09-25T00:11:44.771Z,11.57
2022-09-25T00:13:49.548Z,11.55
2022-09-25T00:15:54.161Z,11.56
2022-09-25T00:17:56.719Z,11.49
2022-09-25T00:19:58.397Z,11.45
2022-09-25T00:22:01.074Z,11.43
2022-09-25T00:24:06.260Z,11.49
2022-09-25T00:26:10.130Z,11.48
2022-09-25T00:28:16.394Z,11.41
2022-09-25T00:30:22.287Z,11.36
2022-09-25T00:32:25.133Z,11.39
2022-09-25T00:34:27.739Z,11.48
2022-09-25T00:36:31.998Z,11.46
2022-09-25T00:38:36.663Z,11.44
2022-09-25T00:40:39.328Z,11.41
2022-09-25T00:42:41.940Z,11.40
2022-09-25T00:44:56.466Z,11.36
2022-09-25T00:47:00.677Z,11.34
2022-09-25T00:49:06.844Z,11.41
2022-09-25T00:51:09.525Z,11.34
2022-09-25T00:53:17.762Z,11.34
2022-09-25T00:55:23.698Z,11.36
2022-09-25T00:57:30.319Z,11.38
2022-09-25T00:59:36.609Z,11.48
2022-09-25T01:01:39.556Z,11.41
2022-09-25T01:03:44.511Z,11.49
2022-09-25T01:05:47.673Z,11.47
2022-09-25T01:07:52.599Z,11.52
2022-09-25T01:09:59.277Z,11.55
2022-09-25T01:12:01.921Z,11.58
2022-09-25T01:14:06.999Z,11.67
2022-09-25T01:16:17.137Z,11.61
2022-09-25T01:18:33.427Z,11.68
2022-09-25T01:21:01.089Z,11.64
2022-09-25T01:23:17.426Z,11.67
2022-09-25T01:25:31.000Z,11.74
2022-09-25T01:27:47.082Z,11.76
2022-09-25T01:30:00.164Z,11.67
2022-09-25T01:32:07.750Z,11.71
2022-09-25T01:34:16.276Z,11.66
2022-09-25T01:36:27.922Z,11.77
2022-09-25T01:38:36.093Z,11.82
2022-09-25T01:40:47.785Z,11.85
2022-09-25T01:42:55.597Z,11.86
2022-09-25T01:45:04.802Z,11.82
2022-09-25T01:47:10.997Z,11.83
2022-09-25T01:49:20.315Z,11.81
2022-09-25T01:51:28.565Z,11.82
2022-09-25T01:53:35.355Z,11.80
2022-09-25T01:55:42.957Z,11.82
2022-09-25T01:57:51.305Z,11.79
2022-09-25T02:00:00.239Z,11.80
2022-09-25T02:02:08.665Z,11.72
2022-09-25T02:04:14.493Z,11.72
2022-09-25T02:06:21.477Z,11.74
2022-09-25T02:08:28.516Z,11.66
2022-09-25T02:10:37.111Z,12.03
2022-09-25T02:12:43.746Z,11.96
2022-09-25T02:14:49.826Z,11.91
2022-09-25T02:16:57.222Z,11.89
2022-09-25T02:19:19.051Z,12.07
2022-09-25T02:21:28.921Z,11.58
2022-09-25T02:23:40.732Z,11.68
2022-09-25T02:25:47.141Z,11.64
2022-09-25T02:27:49.854Z,11.71
2022-09-25T02:29:52.879Z,11.73
2022-09-25T02:31:59.666Z,11.70
2022-09-25T02:34:04.571Z,11.83
2022-09-25T02:36:07.596Z,11.84
2022-09-25T02:38:10.443Z,11.78
2022-09-25T02:40:13.087Z,11.82
2022-09-25T02:42:29.697Z,11.78
2022-09-25T02:44:43.485Z,11.71
2022-09-25T02:46:59.061Z,11.61
2022-09-25T02:49:17.260Z,11.79
2022-09-25T02:51:28.104Z,11.65
2022-09-25T02:53:38.068Z,11.78
2022-09-25T02:55:44.934Z,11.68
2022-09-25T02:57:54.153Z,11.66
2022-09-25T03:00:02.546Z,11.73
2022-09-25T03:02:05.528Z,11.73
2022-09-25T03:04:10.851Z,11.83
2022-09-25T03:06:13.593Z,11.69
2022-09-25T03:08:34.197Z,11.83
2022-09-25T03:10:38.295Z,11.71
2022-09-25T03:12:46.516Z,11.82
2022-09-25T03:14:49.120Z,11.95
2022-09-25T03:16:56.170Z,11.87
2022-09-25T03:18:58.789Z,11.90
2022-09-25T03:21:04.267Z,11.78
2022-09-25T03:23:07.194Z,11.72
2022-09-25T03:25:10.038Z,11.81
2022-09-25T03:27:12.692Z,11.71
2022-09-25T03:29:17.272Z,11.65
2022-09-25T03:31:20.229Z,11.69
2022-09-25T03:33:23.077Z,11.49
2022-09-25T03:35:26.720Z,11.62
2022-09-25T03:37:32.331Z,11.40
2022-09-25T03:39:34.908Z,11.20
2022-09-25T03:41:38.046Z,11.51
2022-09-25T03:43:43.401Z,11.42
2022-09-25T03:45:46.102Z,11.31
2022-09-25T03:47:48.730Z,11.44
2022-09-25T03:49:51.290Z,11.32
2022-09-25T03:51:53.865Z,11.20
2022-09-25T03:53:58.109Z,11.09
2022-09-25T03:56:01.085Z,11.17
2022-09-25T03:58:03.863Z,11.13
2022-09-25T04:00:07.726Z,11.18
2022-09-25T04:02:10.638Z,11.13
2022-09-25T04:04:14.361Z,11.29
2022-09-25T04:06:19.930Z,11.33
2022-09-25T04:08:23.080Z,11.27
2022-09-25T04:10:27.730Z,11.28
2022-09-25T04:12:30.354Z,11.16
2022-09-25T04:14:32.939Z,11.11
2022-09-25T04:16:35.627Z,10.98
2022-09-25T04:18:42.835Z,11.04
2022-09-25T04:20:45.743Z,11.09
2022-09-25T04:22:48.355Z,11.07
2022-09-25T04:24:50.068Z,11.20
2022-09-25T04:26:54.119Z,11.21
2022-09-25T04:28:56.711Z,11.21
2022-09-25T04:30:59.695Z,11.23
2022-09-25T04:33:20.028Z,11.37
2022-09-25T04:35:22.653Z,11.12
2022-09-25T04:37:26.207Z,11.17
2022-09-25T04:39:28.846Z,11.08
2022-09-25T04:41:31.426Z,11.08
2022-09-25T04:43:35.462Z,11.10
2022-09-25T04:45:38.392Z,11.24
2022-09-25T04:47:40.984Z,11.29
2022-09-25T04:49:43.558Z,11.30
2022-09-25T04:51:46.186Z,11.32
2022-09-25T04:53:48.817Z,11.33
2022-09-25T04:55:51.713Z,11.30
2022-09-25T04:57:58.712Z,11.30
2022-09-25T05:00:03.656Z,11.48
2022-09-25T05:02:06.560Z,11.39
2022-09-25T05:04:09.658Z,11.49
2022-09-25T05:06:12.518Z,11.51
2022-09-25T05:08:15.190Z,11.16
2022-09-25T05:10:17.939Z,11.40
2022-09-25T05:12:20.878Z,11.46
2022-09-25T05:14:23.681Z,11.51
2022-09-25T05:16:28.963Z,11.34
2022-09-25T05:18:31.581Z,11.17
2022-09-25T05:20:35.840Z,11.37
2022-09-25T05:22:38.706Z,11.32
2022-09-25T05:24:41.277Z,11.29
2022-09-25T05:26:43.883Z,11.29
2022-09-25T05:28:50.081Z,10.95
2022-09-25T05:30:52.837Z,10.88
2022-09-25T05:32:59.065Z,10.96
2022-09-25T05:35:01.642Z,10.97
2022-09-25T05:37:04.490Z,10.99
2022-09-25T05:39:09.844Z,11.00
2022-09-25T05:41:16.476Z,10.94
2022-09-25T05:43:19.075Z,11.02
2022-09-25T05:45:23.133Z,11.03
2022-09-25T05:47:25.695Z,11.09
2022-09-25T05:49:29.699Z,11.19
2022-09-25T05:51:33.048Z,11.17
2022-09-25T05:53:35.955Z,11.11
2022-09-25T05:55:38.545Z,11.14
2022-09-25T05:57:41.119Z,11.00
2022-09-25T05:59:43.689Z,10.96
2022-09-25T06:01:46.375Z,10.84
2022-09-25T06:03:48.978Z,11.02
2022-09-25T06:05:52.882Z,10.96
2022-09-25T06:07:56.134Z,10.89
2022-09-25T06:09:58.744Z,10.93
2022-09-25T06:12:01.487Z,10.92
2022-09-25T06:14:04.238Z,10.96
2022-09-25T06:16:14.990Z,11.10
2022-09-25T06:18:17.757Z,11.01
2022-09-25T06:20:21.871Z,11.19
2022-09-25T06:22:25.819Z,11.22
2022-09-25T06:24:28.453Z,11.25
2022-09-25T06:26:31.455Z,11.22
2022-09-25T06:28:34.477Z,11.08
2022-09-25T06:30:38.358Z,11.21
2022-09-25T06:32:41.008Z,11.10
2022-09-25T06:34:43.588Z,11.15
2022-09-25T06:36:46.191Z,11.26
2022-09-25T06:38:50.133Z,11.44
2022-09-25T06:40:52.848Z,11.35
2022-09-25T06:42:58.684Z,11.43
2022-09-25T06:45:01.358Z,11.41
2022-09-25T06:47:03.957Z,11.36
2022-09-25T06:49:06.585Z,11.41
2022-09-25T06:51:09.365Z,11.44
2022-09-25T06:53:13.081Z,11.32
2022-09-25T06:55:17.164Z,11.63
2022-09-25T06:57:19.804Z,11.64
2022-09-25T06:59:22.421Z,11.74
2022-09-25T07:01:25.151Z,11.60
2022-09-25T07:03:45.310Z,11.71
2022-09-25T07:05:49.013Z,11.43
2022-09-25T07:07:51.673Z,11.62
2022-09-25T07:09:54.303Z,11.66
2022-09-25T07:11:58.261Z,11.82
2022-09-25T07:14:00.944Z,11.75
2022-09-25T07:16:06.368Z,11.79
2022-09-25T07:18:09.041Z,11.68
2022-09-25T07:20:15.138Z,11.80
2022-09-25T07:22:17.767Z,11.91
2022-09-25T07:24:21.914Z,11.90
2022-09-25T07:26:25.752Z,11.85
2022-09-25T07:28:29.657Z,11.77
2022-09-25T07:30:32.309Z,11.83
2022-09-25T07:32:35.007Z,11.82
2022-09-25T07:34:38.039Z,11.95
2022-09-25T07:36:42.533Z,12.13
2022-09-25T07:38:46.131Z,12.15
2022-09-25T07:40:50.124Z,12.22
2022-09-25T07:42:53.065Z,12.09
2022-09-25T07:44:57.025Z,11.95
2022-09-25T07:47:01.336Z,12.02
2022-09-25T07:49:04.004Z,11.94
2022-09-25T07:51:08.296Z,12.12
2022-09-25T07:53:11.602Z,12.07
2022-09-25T07:55:14.234Z,12.06
2022-09-25T07:57:20.458Z,12.14
2022-09-25T07:59:23.048Z,12.14
2022-09-25T08:01:27.101Z,12.10
2022-09-25T08:03:30.214Z,12.18
2022-09-25T08:05:32.807Z,12.24
2022-09-25T08:07:35.541Z,12.36
2022-09-25T08:09:38.122Z,12.09
2022-09-25T08:11:41.079Z,12.11
2022-09-25T08:13:44.419Z,12.04
2022-09-25T08:15:47.039Z,12.14
2022-09-25T08:17:50.996Z,12.06
2022-09-25T08:19:53.600Z,12.08
2022-09-25T08:21:56.365Z,12.09
2022-09-25T08:23:58.933Z,12.07
2022-09-25T08:26:01.936Z,12.21
2022-09-25T08:28:04.547Z,12.25
2022-09-25T08:30:08.857Z,12.52
2022-09-25T08:32:12.085Z,12.49
2022-09-25T08:34:39.472Z,12.43
2022-09-25T08:36:39.283Z,12.73
2022-09-25T08:38:41.879Z,12.78
2022-09-25T08:40:58.159Z,12.64
2022-09-25T08:43:01.260Z,12.59
2022-09-25T08:45:24.022Z,13.05
2022-09-25T08:47:46.377Z,12.65
2022-09-25T08:50:01.421Z,13.00
2022-09-25T08:52:09.171Z,13.19
2022-09-25T08:54:18.881Z,13.12
2022-09-25T08:56:24.551Z,13.15
2022-09-25T08:58:30.269Z,13.25
2022-09-25T09:00:33.263Z,13.17
2022-09-25T09:02:40.672Z,13.64
2022-09-25T09:04:47.731Z,13.61
2022-09-25T09:07:25.063Z,13.38
2022-09-25T09:09:28.352Z,13.09
2022-09-25T09:11:36.874Z,13.42
2022-09-25T09:13:49.323Z,13.54
2022-09-25T09:15:56.880Z,13.54
2022-09-25T09:18:02.355Z,13.81
2022-09-25T09:20:16.274Z,13.80
2022-09-25T09:22:25.249Z,13.80
2022-09-25T09:24:35.458Z,13.60
2022-09-25T09:26:53.301Z,13.49
2022-09-25T09:29:07.229Z,13.59
2022-09-25T09:31:17.713Z,13.39
2022-09-25T09:33:31.195Z,13.21
2022-09-25T09:35:45.364Z,13.09
2022-09-25T09:38:02.103Z,13.16
2022-09-25T09:40:21.491Z,13.26
2022-09-25T09:42:32.397Z,13.23
2022-09-25T09:44:50.042Z,13.22
2022-09-25T09:47:05.610Z,13.27
2022-09-25T09:49:14.907Z,13.21
2022-09-25T09:51:22.496Z,13.21
2022-09-25T09:53:34.044Z,13.01
2022-09-25T09:55:42.224Z,13.03
2022-09-25T09:57:48.767Z,13.20
2022-09-25T10:00:01.988Z,13.31
2022-09-25T10:02:23.733Z,13.35
2022-09-25T10:04:33.302Z,13.60
2022-09-25T10:06:39.435Z,13.74
2022-09-25T10:08:43.770Z,13.90
2022-09-25T10:10:49.167Z,13.77
2022-09-25T10:12:54.116Z,13.67
2022-09-25T10:14:58.571Z,13.98
2022-09-25T10:17:02.710Z,14.23
2022-09-25T10:19:11.139Z,14.07
2022-09-25T10:21:16.408Z,14.08
2022-09-25T10:23:33.015Z,14.24
2022-09-25T10:25:39.288Z,14.20
2022-09-25T10:27:46.113Z,14.15
2022-09-25T10:30:02.211Z,13.79
2022-09-25T10:32:05.726Z,13.76
2022-09-25T10:34:24.056Z,13.73
2022-09-25T10:36:36.694Z,14.03
2022-09-25T10:38:44.937Z,14.16
2022-09-25T10:41:00.264Z,14.08
2022-09-25T10:43:06.193Z,14.01
2022-09-25T10:45:31.030Z,13.89
2022-09-25T10:47:51.120Z,14.07
2022-09-25T10:50:12.103Z,14.15
2022-09-25T10:52:18.567Z,14.02
2022-09-25T10:54:21.194Z,13.96
2022-09-25T10:56:37.078Z,14.04
2022-09-25T10:58:44.226Z,14.12
2022-09-25T11:00:55.914Z,14.02
2022-09-25T11:03:02.086Z,14.00
2022-09-25T11:05:08.166Z,13.67
2022-09-25T11:07:20.882Z,13.52
2022-09-25T11:09:25.245Z,13.49
2022-09-25T11:11:29.826Z,13.53
2022-09-25T11:13:38.083Z,13.49
2022-09-25T11:15:40.804Z,13.33
2022-09-25T11:17:45.130Z,13.35
2022-09-25T11:20:08.950Z,13.28
2022-09-25T11:22:24.008Z,13.19
2022-09-25T11:24:37.180Z,13.23
2022-09-25T11:26:45.950Z,13.12
2022-09-25T11:28:55.838Z,13.31
2022-09-25T11:31:03.974Z,13.16
2022-09-25T11:33:16.765Z,13.29
2022-09-25T11:35:34.543Z,13.29
2022-09-25T11:37:42.189Z,13.49
2022-09-25T11:40:06.208Z,13.30
2022-09-25T11:42:18.334Z,12.99
2022-09-25T11:44:32.040Z,13.14
2022-09-25T11:46:42.777Z,13.09
2022-09-25T11:48:55.403Z,13.14
2022-09-25T11:51:06.132Z,13.15
2022-09-25T11:53:18.553Z,13.24
2022-09-25T11:55:50.840Z,13.27
2022-09-25T11:58:04.757Z,13.27
2022-09-25T12:00:12.946Z,13.23
2022-09-25T12:02:24.310Z,13.47
2022-09-25T12:04:43.829Z,13.37
2022-09-25T12:07:01.032Z,13.34
2022-09-25T12:09:16.217Z,13.24
2022-09-25T12:11:25.994Z,13.19
2022-09-25T12:13:41.245Z,13.43
2022-09-25T12:15:54.506Z,13.43
2022-09-25T12:18:08.273Z,13.43
2022-09-25T12:20:20.774Z,13.38
2022-09-25T12:22:28.499Z,13.53
2022-09-25T12:24:45.129Z,13.64
2022-09-25T12:26:57.183Z,13.70
2022-09-25T12:29:15.772Z,13.76
2022-09-25T12:31:29.465Z,13.91
2022-09-25T12:33:40.525Z,13.99
2022-09-25T12:35:51.637Z,14.00
2022-09-25T12:37:58.816Z,13.92
2022-09-25T12:40:05.165Z,14.08
2022-09-25T12:42:16.879Z,14.05
2022-09-25T12:44:27.497Z,14.34
2022-09-25T12:46:37.610Z,14.35
2022-09-25T12:48:46.074Z,14.64
2022-09-25T12:50:56.332Z,14.64
2022-09-25T12:53:03.670Z,15.10
2022-09-25T12:55:14.330Z,15.01
2022-09-25T12:57:23.320Z,14.64
2022-09-25T12:59:36.036Z,14.89
2022-09-25T13:01:46.472Z,15.25
2022-09-25T13:03:57.687Z,15.23
2022-09-25T13:06:08.351Z,15.39
2022-09-25T13:08:16.772Z,14.96
2022-09-25T13:10:26.346Z,15.22
2022-09-25T13:12:34.988Z,15.05
2022-09-25T13:14:45.093Z,15.68
2022-09-25T13:16:48.782Z,16.18
2022-09-25T13:19:12.239Z,15.06
2022-09-25T13:21:26.911Z,15.13
2022-09-25T13:23:34.602Z,15.15
2022-09-25T13:25:43.347Z,15.29
2022-09-25T13:27:48.096Z,15.39
2022-09-25T13:30:02.082Z,14.91
2022-09-25T13:32:07.762Z,14.53
2022-09-25T13:34:14.238Z,14.64
2022-09-25T13:36:32.817Z,14.52
2022-09-25T13:38:58.295Z,14.79
2022-09-25T13:41:00.950Z,15.27
2022-09-25T13:43:21.535Z,14.85
2022-09-25T13:45:32.218Z,14.60
2022-09-25T13:47:55.511Z,14.62
2022-09-25T13:50:17.639Z,14.53
2022-09-25T13:53:14.513Z,14.82
2022-09-25T13:55:21.000Z,15.06
2022-09-25T13:58:02.370Z,14.94
2022-09-25T14:00:06.477Z,14.25
2022-09-25T14:02:42.099Z,14.50
2022-09-25T14:04:48.582Z,14.48
2022-09-25T14:06:57.110Z,14.57
2022-09-25T14:09:07.572Z,14.21
2022-09-25T14:11:18.292Z,14.33
2022-09-25T14:13:23.791Z,14.03
2022-09-25T14:15:32.294Z,14.58
2022-09-25T14:17:37.912Z,14.61
2022-09-25T14:19:44.482Z,14.62
2022-09-25T14:21:48.623Z,14.65
2022-09-25T14:23:54.296Z,14.39
2022-09-25T14:26:00.690Z,14.40
2022-09-25T14:28:04.903Z,14.30
2022-09-25T14:30:13.831Z,14.64
2022-09-25T14:32:53.828Z,14.69
2022-09-25T14:35:08.840Z,14.85
2022-09-25T14:37:30.199Z,14.87
2022-09-25T14:39:39.764Z,15.07
2022-09-25T14:42:15.964Z,15.24
2022-09-25T14:44:42.224Z,15.18
2022-09-25T14:46:45.744Z,15.24
2022-09-25T14:48:51.246Z,15.49
2022-09-25T14:50:59.127Z,15.50
2022-09-25T14:53:08.203Z,15.70
2022-09-25T14:55:20.972Z,15.36
2022-09-25T14:57:26.897Z,14.89
2022-09-25T14:59:37.741Z,14.98
2022-09-25T15:01:47.908Z,15.29
2022-09-25T15:03:51.203Z,15.35
2022-09-25T15:05:56.520Z,15.06
2022-09-25T15:08:02.201Z,14.57
2022-09-25T15:10:25.463Z,14.84
2022-09-25T15:12:30.380Z,14.97
2022-09-25T15:14:34.145Z,15.02
2022-09-25T15:16:56.903Z,15.04
2022-09-25T15:19:02.068Z,14.75
2022-09-25T15:21:09.126Z,14.67
2022-09-25T15:23:18.689Z,14.64
2022-09-25T15:25:25.459Z,14.66
2022-09-25T15:27:29.294Z,14.56
2022-09-25T15:29:35.990Z,14.29
2022-09-25T15:31:39.104Z,14.38
2022-09-25T15:33:42.422Z,14.16
2022-09-25T15:35:55.076Z,14.20
2022-09-25T15:38:12.475Z,14.22
2022-09-25T15:40:28.336Z,14.45
2022-09-25T15:42:31.112Z,14.46
2022-09-25T15:44:33.854Z,14.41
2022-09-25T15:46:39.672Z,14.71
2022-09-25T15:48:51.162Z,14.38
2022-09-25T15:50:55.188Z,14.13
2022-09-25T15:53:02.292Z,14.02
2022-09-25T15:55:12.736Z,14.09
2022-09-25T15:57:17.700Z,14.10
2022-09-25T15:59:24.686Z,13.92
2022-09-25T16:01:47.667Z,13.77
2022-09-25T16:04:12.282Z,13.85
2022-09-25T16:06:17.518Z,13.76
2022-09-25T16:08:29.383Z,14.00
2022-09-25T16:10:34.524Z,13.60
2022-09-25T16:12:45.901Z,13.67
2022-09-25T16:14:48.829Z,13.51
2022-09-25T16:16:52.081Z,13.67
2022-09-25T16:18:55.868Z,13.50
2022-09-25T16:21:10.690Z,13.33
2022-09-25T16:23:31.410Z,13.19
2022-09-25T16:25:37.578Z,13.32
2022-09-25T16:27:40.240Z,13.41
2022-09-25T16:29:45.612Z,13.36
2022-09-25T16:31:53.498Z,13.42
2022-09-25T16:33:58.087Z,13.42
2022-09-25T16:36:16.214Z,13.23
2022-09-25T16:38:28.752Z,13.45
2022-09-25T16:40:34.078Z,13.25
2022-09-25T16:42:40.398Z,13.17
2022-09-25T16:44:46.785Z,13.30
2022-09-25T16:47:16.499Z,13.26
2022-09-25T16:49:19.889Z,13.10
2022-09-25T16:51:26.743Z,13.00
2022-09-25T16:53:30.190Z,13.19
2022-09-25T16:55:38.229Z,13.02
2022-09-25T16:57:45.972Z,12.79
2022-09-25T16:59:49.255Z,12.80
2022-09-25T17:01:54.420Z,12.83
2022-09-25T17:03:59.857Z,12.77
2022-09-25T17:06:02.676Z,12.77
2022-09-25T17:08:17.043Z,12.86
2022-09-25T17:10:23.066Z,12.70
2022-09-25T17:12:27.380Z,12.60
2022-09-25T17:14:31.536Z,12.57
2022-09-25T17:16:34.690Z,12.56
2022-09-25T17:18:37.573Z,12.71
2022-09-25T17:20:40.197Z,12.64
2022-09-25T17:22:42.996Z,12.53
2022-09-25T17:24:45.677Z,12.52
2022-09-25T17:26:48.686Z,12.54
2022-09-25T17:28:51.748Z,12.73
2022-09-25T17:30:56.024Z,12.56
2022-09-25T17:32:58.817Z,12.59
2022-09-25T17:35:01.869Z,12.49
2022-09-25T17:37:04.497Z,12.58
2022-09-25T17:39:07.136Z,12.42
2022-09-25T17:41:19.325Z,12.33
2022-09-25T17:43:22.125Z,12.23
2022-09-25T17:45:31.942Z,12.42
2022-09-25T17:47:35.880Z,12.44
2022-09-25T17:49:38.497Z,12.29
2022-09-25T17:51:41.798Z,12.29
2022-09-25T17:53:45.363Z,12.23
2022-09-25T17:55:53.501Z,12.33
2022-09-25T17:57:56.677Z,12.14
2022-09-25T17:59:59.305Z,12.00
2022-09-25T18:02:01.979Z,12.08
2022-09-25T18:04:21.942Z,11.86
2022-09-25T18:06:26.303Z,11.94
2022-09-25T18:08:29.016Z,11.89
2022-09-25T18:10:32.007Z,11.75
2022-09-25T18:12:34.629Z,11.81
2022-09-25T18:14:37.222Z,11.94
2022-09-25T18:16:41.614Z,11.72
2022-09-25T18:19:01.856Z,11.71
2022-09-25T18:21:23.954Z,11.83
2022-09-25T18:23:26.834Z,11.68
2022-09-25T18:25:30.144Z,11.73
2022-09-25T18:27:34.716Z,11.69
2022-09-25T18:29:37.351Z,11.75
2022-09-25T18:31:40.058Z,11.68
2022-09-25T18:33:47.299Z,11.64
2022-09-25T18:35:50.155Z,11.61
2022-09-25T18:37:54.104Z,11.64
2022-09-25T18:39:56.698Z,11.73
2022-09-25T18:41:59.392Z,11.79
2022-09-25T18:44:02.088Z,11.66
2022-09-25T18:46:04.983Z,11.71
2022-09-25T18:48:07.613Z,11.84
2022-09-25T18:50:11.158Z,11.87
2022-09-25T18:52:13.797Z,11.85
2022-09-25T18:54:17.786Z,11.86
2022-09-25T18:56:20.585Z,12.03
2022-09-25T18:58:23.205Z,11.82
2022-09-25T19:00:25.829Z,11.84
2022-09-25T19:02:30.525Z,12.01
2022-09-25T19:04:34.347Z,11.92
2022-09-25T19:06:37.300Z,11.88
2022-09-25T19:08:39.940Z,11.86
2022-09-25T19:10:44.264Z,11.81
2022-09-25T19:12:46.870Z,11.87
2022-09-25T19:14:49.590Z,11.86
2022-09-25T19:16:53.083Z,11.95
2022-09-25T19:18:55.787Z,11.85
2022-09-25T19:20:58.382Z,11.67
2022-09-25T19:23:02.486Z,11.53
2022-09-25T19:25:05.735Z,11.60
2022-09-25T19:27:10.458Z,11.91
2022-09-25T19:29:13.280Z,11.81
2022-09-25T19:31:18.559Z,11.69
2022-09-25T19:33:21.209Z,11.69
2022-09-25T19:35:24.066Z,11.65
2022-09-25T19:37:29.827Z,11.42
2022-09-25T19:39:53.084Z,11.51
2022-09-25T19:41:56.081Z,11.58
2022-09-25T19:44:11.887Z,11.59
2022-09-25T19:46:18.212Z,11.73
2022-09-25T19:48:21.162Z,11.66
2022-09-25T19:50:23.862Z,11.56
2022-09-25T19:52:26.524Z,11.49
2022-09-25T19:54:29.493Z,11.41
2022-09-25T19:56:32.122Z,11.48
2022-09-25T19:58:38.109Z,11.59
2022-09-25T20:00:43.043Z,11.38
2022-09-25T20:02:48.211Z,11.29
2022-09-25T20:04:50.833Z,11.29
2022-09-25T20:06:55.433Z,11.27
2022-09-25T20:08:58.783Z,11.44
2022-09-25T20:11:02.237Z,11.33
2022-09-25T20:13:05.716Z,11.37
2022-09-25T20:15:09.009Z,11.48
2022-09-25T20:17:13.001Z,11.22
2022-09-25T20:19:16.087Z,11.37
2022-09-25T20:21:21.275Z,11.50
2022-09-25T20:23:23.940Z,11.23
2022-09-25T20:25:27.929Z,11.34
2022-09-25T20:27:30.612Z,11.36
2022-09-25T20:29:33.207Z,11.34
2022-09-25T20:31:36.762Z,11.27
2022-09-25T20:33:42.188Z,11.33
2022-09-25T20:35:44.790Z,11.06
2022-09-25T20:37:47.919Z,11.00
2022-09-25T20:39:50.676Z,11.12
2022-09-25T20:41:53.268Z,10.97
2022-09-25T20:43:57.540Z,11.11
2022-09-25T20:46:03.895Z,11.14
2022-09-25T20:48:06.654Z,11.17
2022-09-25T20:50:11.519Z,11.06
2022-09-25T20:52:14.663Z,11.00
2022-09-25T20:54:17.466Z,11.03
2022-09-25T20:56:21.876Z,10.89
2022-09-25T20:58:24.606Z,10.87
2022-09-25T21:00:27.213Z,10.95
2022-09-25T21:02:30.182Z,10.86
2022-09-25T21:04:33.249Z,10.90
2022-09-25T21:06:38.892Z,11.06
2022-09-25T21:08:41.671Z,11.00
2022-09-25T21:10:44.457Z,10.95
2022-09-25T21:12:47.154Z,10.93
2022-09-25T21:14:50.434Z,11.05
2022-09-25T21:16:54.187Z,11.11
2022-09-25T21:18:58.679Z,11.04
2022-09-25T21:21:02.081Z,11.05
2022-09-25T21:23:06.177Z,10.93
2022-09-25T21:25:09.792Z,10.82
2022-09-25T21:27:12.444Z,10.95
2022-09-25T21:29:16.690Z,10.87
2022-09-25T21:31:20.941Z,10.94
2022-09-25T21:33:23.608Z,10.90
2022-09-25T21:35:26.198Z,10.93
2022-09-25T21:37:28.823Z,10.96
2022-09-25T21:39:32.813Z,10.79
2022-09-25T21:41:36.126Z,10.84
2022-09-25T21:43:39.350Z,10.79
2022-09-25T21:45:42.129Z,10.94
2022-09-25T21:47:44.881Z,11.02
2022-09-25T21:49:47.544Z,10.90
2022-09-25T21:51:51.040Z,10.97
2022-09-25T21:53:54.652Z,10.97
2022-09-25T21:56:03.178Z,11.02
2022-09-25T21:58:05.768Z,10.93
2022-09-25T22:00:09.911Z,10.94
2022-09-25T22:02:12.605Z,10.96
2022-09-25T22:04:16.109Z,10.85
2022-09-25T22:06:22.128Z,10.83
2022-09-25T22:08:24.746Z,10.80
2022-09-25T22:10:27.363Z,10.90
2022-09-25T22:12:31.351Z,10.74
2022-09-25T22:14:33.932Z,10.81
2022-09-25T22:16:39.530Z,10.79
2022-09-25T22:18:44.242Z,10.78
2022-09-25T22:20:46.876Z,10.78
2022-09-25T22:22:49.922Z,10.84
2022-09-25T22:24:52.577Z,10.69
2022-09-25T22:26:56.934Z,10.57
2022-09-25T22:29:00.925Z,10.64
2022-09-25T22:31:06.028Z,10.60
2022-09-25T22:33:08.656Z,10.60
2022-09-25T22:35:11.360Z,10.71
2022-09-25T22:37:14.018Z,10.54
2022-09-25T22:39:19.284Z,10.66
2022-09-25T22:41:22.121Z,10.50
2022-09-25T22:43:24.756Z,10.51
2022-09-25T22:45:29.219Z,10.67
2022-09-25T22:47:37.936Z,10.58
2022-09-25T22:49:40.584Z,10.64
2022-09-25T22:51:43.462Z,10.63
2022-09-25T22:53:46.311Z,10.57
2022-09-25T22:55:49.199Z,10.51
2022-09-25T22:57:51.796Z,10.65
2022-09-25T22:59:54.808Z,10.73
2022-09-25T23:01:58.789Z,10.61
2022-09-25T23:04:03.694Z,10.67
2022-09-25T23:06:07.015Z,10.63
2022-09-25T23:08:10.168Z,10.64
2022-09-25T23:10:12.803Z,10.57
2022-09-25T23:12:15.468Z,10.61
2022-09-25T23:14:21.695Z,10.58
2022-09-25T23:16:25.215Z,10.42
2022-09-25T23:18:32.375Z,10.41
2022-09-25T23:20:35.057Z,10.35
2022-09-25T23:22:37.737Z,10.40
2022-09-25T23:24:41.045Z,10.40
2022-09-25T23:26:44.649Z,10.54
2022-09-25T23:28:50.022Z,10.47
2022-09-25T23:30:52.798Z,10.44
2022-09-25T23:32:55.412Z,10.52
2022-09-25T23:34:59.420Z,10.42
2022-09-25T23:37:02.049Z,10.62
2022-09-25T23:39:06.283Z,10.66
2022-09-25T23:41:16.885Z,10.62
2022-09-25T23:43:19.452Z,10.50
2022-09-25T23:45:22.433Z,10.57
2022-09-25T23:47:25.088Z,10.52
2022-09-25T23:49:27.922Z,10.51
2022-09-25T23:51:32.308Z,10.48
2022-09-25T23:53:35.378Z,10.48
2022-09-25T23:55:39.803Z,10.56
2022-09-25T23:57:42.985Z,10.61
2022-09-25T23:59:45.577Z,10.59
